createdAt,value
2023-01-08T00:01:25.320Z,2.40
2023-01-08T00:16:25.388Z,2.42
2023-01-08T00:31:25.893Z,2.57
2023-01-08T00:46:25.089Z,1.50
2023-01-08T01:01:25.547Z,1.50
2023-01-08T01:15:42.858Z,4.00
2023-01-08T01:16:24.980Z,4.00
2023-01-08T01:31:25.319Z,2.08
2023-01-08T01:46:26.055Z,2.12
2023-01-08T01:58:35.092Z,1.40
2023-01-08T02:10:51.029Z,2.12
2023-01-08T02:16:25.136Z,2.75
2023-01-08T02:31:25.060Z,2.33
2023-01-08T02:46:25.082Z,2.33
2023-01-08T03:01:25.064Z,2.70
2023-01-08T03:16:24.889Z,2.42
2023-01-08T03:31:24.935Z,2.30
2023-01-08T03:46:25.062Z,2.33
2023-01-08T04:01:25.135Z,2.20
2023-01-08T04:16:34.127Z,2.15
2023-01-08T04:31:34.642Z,1.50
2023-01-08T04:46:34.176Z,1.70
2023-01-08T05:01:34.955Z,1.90
2023-01-08T05:16:24.424Z,2.55
2023-01-08T05:31:24.386Z,2.60
2023-01-08T05:46:24.335Z,2.78
2023-01-08T06:01:24.301Z,3.10
2023-01-08T06:16:24.530Z,3.10
2023-01-08T06:31:24.297Z,3.12
2023-01-08T06:46:24.725Z,3.25
2023-01-08T07:01:24.969Z,3.20
2023-01-08T07:16:25.008Z,3.28
2023-01-08T07:31:24.436Z,3.55
2023-01-08T07:45:23.974Z,4.10
2023-01-08T08:00:28.152Z,4.03
2023-01-08T08:15:25.757Z,4.33
2023-01-08T08:30:24.366Z,4.37
2023-01-08T08:45:23.794Z,4.45
2023-01-08T09:00:35.267Z,4.57
2023-01-08T09:12:13.353Z,4.40
2023-01-08T09:15:23.899Z,5.20
2023-01-08T09:25:15.084Z,5.25
2023-01-08T09:56:10.631Z,5.43
2023-01-08T10:10:29.740Z,5.80
2023-01-08T10:15:24.517Z,7.00
2023-01-08T10:16:28.274Z,7.00
2023-01-08T10:29:33.863Z,6.80
2023-01-08T10:56:49.844Z,7.35
2023-01-08T11:11:49.139Z,7.68
2023-01-08T11:30:24.108Z,7.93
2023-01-08T11:45:24.160Z,8.30
2023-01-08T12:00:24.415Z,8.40
2023-01-08T12:15:24.769Z,8.55
2023-01-08T12:30:33.831Z,8.67
2023-01-08T12:45:33.449Z,8.80
2023-01-08T13:00:36.083Z,8.77
2023-01-08T13:15:23.434Z,8.75
2023-01-08T13:30:24.002Z,8.68
2023-01-08T13:45:25.067Z,8.80
2023-01-08T14:09:46.379Z,9.00
2023-01-08T14:30:24.390Z,9.15
2023-01-08T14:45:24.129Z,9.10
2023-01-08T15:00:30.856Z,8.95
2023-01-08T15:15:31.030Z,8.88
2023-01-08T15:46:39.741Z,8.00
2023-01-08T16:01:24.838Z,8.30
2023-01-08T16:16:24.624Z,8.02
2023-01-08T16:31:25.223Z,7.85
2023-01-08T16:46:24.924Z,7.65
2023-01-08T17:01:24.889Z,7.53
2023-01-08T17:16:26.149Z,7.43
2023-01-08T17:31:24.957Z,7.30
2023-01-08T17:46:25.140Z,7.32
2023-01-08T18:01:34.255Z,7.35
2023-01-08T18:16:24.669Z,7.30
2023-01-08T18:31:24.394Z,6.80
2023-01-08T18:46:24.779Z,6.80
2023-01-08T19:01:24.803Z,7.10
2023-01-08T19:16:26.301Z,7.15
2023-01-08T19:31:25.017Z,7.18
2023-01-08T19:46:24.902Z,7.27
2023-01-08T20:01:25.100Z,7.18
2023-01-08T20:16:25.184Z,7.20
2023-01-08T20:31:25.124Z,7.18
2023-01-08T20:46:25.173Z,7.20
2023-01-08T21:01:25.587Z,7.50
2023-01-08T21:16:25.502Z,7.10
2023-01-08T21:31:25.340Z,7.10
2023-01-08T21:46:25.060Z,7.40
2023-01-08T22:01:26.318Z,7.43
2023-01-08T22:16:25.717Z,7.50
2023-01-08T22:31:25.330Z,7.35
2023-01-08T22:46:34.493Z,7.28
2023-01-08T23:04:18.554Z,6.90
2023-01-08T23:16:25.059Z,7.30
2023-01-08T23:31:25.621Z,7.18
2023-01-08T23:46:24.557Z,7.10
